sensor_id;sensor_type;location;lat;lon;timestamp;temperature;humidity
24103;DHT22;12278;53.058;9.028;2023-11-21T00:01:48;9.10;99.90
24103;DHT22;12278;53.058;9.028;2023-11-21T00:05:48;9.10;99.90
24103;DHT22;12278;53.058;9.028;2023-11-21T00:09:49;9.10;99.90
24103;DHT22;12278;53.058;9.028;2023-11-21T00:13:50;9.10;99.90
24103;DHT22;12278;53.058;9.028;2023-11-21T00:17:51;9.20;99.90
24103;DHT22;12278;53.058;9.028;2023-11-21T00:21:51;9.20;99.90
24103;DHT22;12278;53.058;9.028;2023-11-21T00:25:52;9.10;99.90
24103;DHT22;12278;53.058;9.028;2023-11-21T00:29:52;9.10;99.90
24103;DHT22;12278;53.058;9.028;2023-11-21T00:33:54;9.10;99.90
24103;DHT22;12278;53.058;9.028;2023-11-21T00:37:55;9.10;99.90
24103;DHT22;12278;53.058;9.028;2023-11-21T00:41:56;9.10;99.90
24103;DHT22;12278;53.058;9.028;2023-11-21T00:45:57;9.10;99.90
24103;DHT22;12278;53.058;9.028;2023-11-21T00:49:57;9.10;99.90
24103;DHT22;12278;53.058;9.028;2023-11-21T00:53:58;9.10;99.90
24103;DHT22;12278;53.058;9.028;2023-11-21T00:57:59;9.10;99.90
24103;DHT22;12278;53.058;9.028;2023-11-21T01:02:00;9.10;99.90
24103;DHT22;12278;53.058;9.028;2023-11-21T01:06:01;9.10;99.90
24103;DHT22;12278;53.058;9.028;2023-11-21T01:10:05;9.20;99.90
24103;DHT22;12278;53.058;9.028;2023-11-21T01:14:07;9.20;99.90
24103;DHT22;12278;53.058;9.028;2023-11-21T01:18:09;9.20;99.90
24103;DHT22;12278;53.058;9.028;2023-11-21T01:22:09;9.20;99.90
24103;DHT22;12278;53.058;9.028;2023-11-21T01:26:12;9.20;99.90
24103;DHT22;12278;53.058;9.028;2023-11-21T01:30:13;9.20;99.90
24103;DHT22;12278;53.058;9.028;2023-11-21T01:34:13;9.30;99.90
24103;DHT22;12278;53.058;9.028;2023-11-21T01:38:14;9.20;99.90
24103;DHT22;12278;53.058;9.028;2023-11-21T01:42:15;9.30;99.90
24103;DHT22;12278;53.058;9.028;2023-11-21T01:46:16;9.30;99.90
24103;DHT22;12278;53.058;9.028;2023-11-21T01:50:17;9.30;99.90
24103;DHT22;12278;53.058;9.028;2023-11-21T01:54:19;9.30;99.90
24103;DHT22;12278;53.058;9.028;2023-11-21T01:58:20;9.30;99.90
24103;DHT22;12278;53.058;9.028;2023-11-21T02:02:22;9.30;99.90
24103;DHT22;12278;53.058;9.028;2023-11-21T02:06:22;9.30;99.90
24103;DHT22;12278;53.058;9.028;2023-11-21T02:10:24;9.30;99.90
24103;DHT22;12278;53.058;9.028;2023-11-21T02:14:26;9.30;99.90
24103;DHT22;12278;53.058;9.028;2023-11-21T02:18:28;9.30;99.90
24103;DHT22;12278;53.058;9.028;2023-11-21T02:22:31;9.30;99.90
24103;DHT22;12278;53.058;9.028;2023-11-21T02:26:32;9.30;99.90
24103;DHT22;12278;53.058;9.028;2023-11-21T02:30:33;9.40;99.90
24103;DHT22;12278;53.058;9.028;2023-11-21T02:34:34;9.40;99.90
24103;DHT22;12278;53.058;9.028;2023-11-21T02:38:34;9.40;99.90
24103;DHT22;12278;53.058;9.028;2023-11-21T02:42:35;9.40;99.90
24103;DHT22;12278;53.058;9.028;2023-11-21T02:46:36;9.30;99.90
24103;DHT22;12278;53.058;9.028;2023-11-21T02:50:37;9.40;99.90
24103;DHT22;12278;53.058;9.028;2023-11-21T02:54:38;9.40;99.90
24103;DHT22;12278;53.058;9.028;2023-11-21T02:58:43;9.40;99.90
24103;DHT22;12278;53.058;9.028;2023-11-21T03:02:45;9.40;99.90
24103;DHT22;12278;53.058;9.028;2023-11-21T03:06:48;9.40;99.90
24103;DHT22;12278;53.058;9.028;2023-11-21T03:10:48;9.40;99.90
24103;DHT22;12278;53.058;9.028;2023-11-21T03:14:49;9.40;99.90
24103;DHT22;12278;53.058;9.028;2023-11-21T03:18:50;9.30;99.90
24103;DHT22;12278;53.058;9.028;2023-11-21T03:22:51;9.40;99.90
24103;DHT22;12278;53.058;9.028;2023-11-21T03:26:51;9.50;99.90
24103;DHT22;12278;53.058;9.028;2023-11-21T03:30:53;9.50;99.90
24103;DHT22;12278;53.058;9.028;2023-11-21T03:34:56;9.50;99.90
24103;DHT22;12278;53.058;9.028;2023-11-21T03:38:57;9.50;99.90
24103;DHT22;12278;53.058;9.028;2023-11-21T03:42:57;9.50;99.90
24103;DHT22;12278;53.058;9.028;2023-11-21T03:46:58;9.40;99.90
24103;DHT22;12278;53.058;9.028;2023-11-21T03:50:58;9.40;99.90
24103;DHT22;12278;53.058;9.028;2023-11-21T03:54:59;9.40;99.90
24103;DHT22;12278;53.058;9.028;2023-11-21T03:58:59;9.30;99.90
24103;DHT22;12278;53.058;9.028;2023-11-21T04:03:00;9.30;99.90
24103;DHT22;12278;53.058;9.028;2023-11-21T04:07:01;9.20;99.90
24103;DHT22;12278;53.058;9.028;2023-11-21T04:11:01;9.20;99.90
24103;DHT22;12278;53.058;9.028;2023-11-21T04:15:03;9.10;99.90
24103;DHT22;12278;53.058;9.028;2023-11-21T04:19:04;9.10;99.90
24103;DHT22;12278;53.058;9.028;2023-11-21T04:23:04;9.10;99.90
24103;DHT22;12278;53.058;9.028;2023-11-21T04:27:05;9.00;99.90
24103;DHT22;12278;53.058;9.028;2023-11-21T04:31:05;8.90;99.90
24103;DHT22;12278;53.058;9.028;2023-11-21T04:35:08;8.80;99.90
24103;DHT22;12278;53.058;9.028;2023-11-21T04:39:11;8.70;99.90
24103;DHT22;12278;53.058;9.028;2023-11-21T04:43:12;8.70;99.90
24103;DHT22;12278;53.058;9.028;2023-11-21T04:47:13;8.60;99.90
24103;DHT22;12278;53.058;9.028;2023-11-21T04:51:13;8.60;99.90
24103;DHT22;12278;53.058;9.028;2023-11-21T04:55:14;8.50;99.90
24103;DHT22;12278;53.058;9.028;2023-11-21T04:59:15;8.50;99.90
24103;DHT22;12278;53.058;9.028;2023-11-21T05:03:16;8.50;99.90
24103;DHT22;12278;53.058;9.028;2023-11-21T05:07:16;8.60;99.90
24103;DHT22;12278;53.058;9.028;2023-11-21T05:11:27;8.50;99.90
24103;DHT22;12278;53.058;9.028;2023-11-21T05:15:29;8.50;99.90
24103;DHT22;12278;53.058;9.028;2023-11-21T05:19:30;8.50;99.90
24103;DHT22;12278;53.058;9.028;2023-11-21T05:23:30;8.50;99.90
24103;DHT22;12278;53.058;9.028;2023-11-21T05:27:31;8.50;99.90
24103;DHT22;12278;53.058;9.028;2023-11-21T05:31:31;8.50;99.90
24103;DHT22;12278;53.058;9.028;2023-11-21T05:35:32;8.50;99.90
24103;DHT22;12278;53.058;9.028;2023-11-21T05:39:33;8.30;99.90
24103;DHT22;12278;53.058;9.028;2023-11-21T05:43:33;8.40;99.90
24103;DHT22;12278;53.058;9.028;2023-11-21T05:47:40;8.30;99.90
24103;DHT22;12278;53.058;9.028;2023-11-21T05:51:42;8.30;99.90
24103;DHT22;12278;53.058;9.028;2023-11-21T05:55:42;8.20;99.90
24103;DHT22;12278;53.058;9.028;2023-11-21T05:59:43;8.10;99.90
24103;DHT22;12278;53.058;9.028;2023-11-21T06:03:44;8.10;99.90
24103;DHT22;12278;53.058;9.028;2023-11-21T06:07:46;8.00;99.90
24103;DHT22;12278;53.058;9.028;2023-11-21T06:11:46;8.00;99.90
24103;DHT22;12278;53.058;9.028;2023-11-21T06:15:47;8.00;99.90
24103;DHT22;12278;53.058;9.028;2023-11-21T06:19:48;8.00;99.90
24103;DHT22;12278;53.058;9.028;2023-11-21T06:23:48;8.00;99.90
24103;DHT22;12278;53.058;9.028;2023-11-21T06:27:50;7.90;99.90
24103;DHT22;12278;53.058;9.028;2023-11-21T06:31:52;7.90;99.90
24103;DHT22;12278;53.058;9.028;2023-11-21T06:35:55;7.90;99.90
24103;DHT22;12278;53.058;9.028;2023-11-21T06:39:56;7.80;99.90
24103;DHT22;12278;53.058;9.028;2023-11-21T06:43:58;7.80;99.90
24103;DHT22;12278;53.058;9.028;2023-11-21T06:47:59;7.80;99.90
24103;DHT22;12278;53.058;9.028;2023-11-21T06:52:00;7.70;99.90
24103;DHT22;12278;53.058;9.028;2023-11-21T06:56:03;7.70;99.90
24103;DHT22;12278;53.058;9.028;2023-11-21T07:00:04;7.60;99.90
24103;DHT22;12278;53.058;9.028;2023-11-21T07:04:06;7.60;99.90
24103;DHT22;12278;53.058;9.028;2023-11-21T07:08:07;7.50;99.90
24103;DHT22;12278;53.058;9.028;2023-11-21T07:12:08;7.50;99.90
24103;DHT22;12278;53.058;9.028;2023-11-21T07:16:08;7.50;99.90
24103;DHT22;12278;53.058;9.028;2023-11-21T07:20:11;7.60;99.90
24103;DHT22;12278;53.058;9.028;2023-11-21T07:24:11;7.60;99.90
24103;DHT22;12278;53.058;9.028;2023-11-21T07:28:12;7.60;99.90
24103;DHT22;12278;53.058;9.028;2023-11-21T07:32:12;7.50;99.90
24103;DHT22;12278;53.058;9.028;2023-11-21T07:36:15;7.50;99.90
24103;DHT22;12278;53.058;9.028;2023-11-21T07:40:16;7.50;99.90
24103;DHT22;12278;53.058;9.028;2023-11-21T07:44:17;7.50;99.90
24103;DHT22;12278;53.058;9.028;2023-11-21T07:48:18;7.50;99.90
24103;DHT22;12278;53.058;9.028;2023-11-21T07:52:18;7.50;99.90
24103;DHT22;12278;53.058;9.028;2023-11-21T07:56:21;7.60;99.90
24103;DHT22;12278;53.058;9.028;2023-11-21T08:00:22;7.50;99.90
24103;DHT22;12278;53.058;9.028;2023-11-21T08:04:24;7.60;99.90
24103;DHT22;12278;53.058;9.028;2023-11-21T08:08:25;7.60;99.90
24103;DHT22;12278;53.058;9.028;2023-11-21T08:12:26;7.60;99.90
24103;DHT22;12278;53.058;9.028;2023-11-21T08:16:28;7.60;99.90
24103;DHT22;12278;53.058;9.028;2023-11-21T08:20:28;7.60;99.90
24103;DHT22;12278;53.058;9.028;2023-11-21T08:24:29;7.70;99.90
24103;DHT22;12278;53.058;9.028;2023-11-21T08:28:30;7.80;99.90
24103;DHT22;12278;53.058;9.028;2023-11-21T08:32:30;7.70;99.90
24103;DHT22;12278;53.058;9.028;2023-11-21T08:36:33;7.80;99.90
24103;DHT22;12278;53.058;9.028;2023-11-21T08:40:35;7.90;99.90
24103;DHT22;12278;53.058;9.028;2023-11-21T08:44:35;7.90;99.90
24103;DHT22;12278;53.058;9.028;2023-11-21T08:48:36;7.90;99.90
24103;DHT22;12278;53.058;9.028;2023-11-21T08:52:38;7.80;99.90
24103;DHT22;12278;53.058;9.028;2023-11-21T08:56:39;7.80;99.90
24103;DHT22;12278;53.058;9.028;2023-11-21T09:00:40;7.80;99.90
24103;DHT22;12278;53.058;9.028;2023-11-21T09:04:41;7.90;99.90
24103;DHT22;12278;53.058;9.028;2023-11-21T09:08:41;8.00;99.90
24103;DHT22;12278;53.058;9.028;2023-11-21T09:12:42;8.10;99.90
24103;DHT22;12278;53.058;9.028;2023-11-21T09:16:43;8.20;99.90
24103;DHT22;12278;53.058;9.028;2023-11-21T09:20:44;8.30;99.90
24103;DHT22;12278;53.058;9.028;2023-11-21T09:24:44;8.40;99.90
24103;DHT22;12278;53.058;9.028;2023-11-21T09:28:45;8.20;99.90
24103;DHT22;12278;53.058;9.028;2023-11-21T09:32:47;8.10;99.90
24103;DHT22;12278;53.058;9.028;2023-11-21T09:36:48;8.20;99.90
24103;DHT22;12278;53.058;9.028;2023-11-21T09:40:49;8.20;99.90
24103;DHT22;12278;53.058;9.028;2023-11-21T09:49:02;8.20;99.90
24103;DHT22;12278;53.058;9.028;2023-11-21T09:57:15;8.40;99.90
24103;DHT22;12278;53.058;9.028;2023-11-21T10:01:16;8.40;99.90
24103;DHT22;12278;53.058;9.028;2023-11-21T10:05:18;8.40;99.90
24103;DHT22;12278;53.058;9.028;2023-11-21T10:09:23;8.50;99.90
24103;DHT22;12278;53.058;9.028;2023-11-21T10:13:26;8.70;99.90
24103;DHT22;12278;53.058;9.028;2023-11-21T10:17:28;8.80;99.90
24103;DHT22;12278;53.058;9.028;2023-11-21T10:21:38;9.10;99.90
24103;DHT22;12278;53.058;9.028;2023-11-21T10:25:39;9.20;99.90
24103;DHT22;12278;53.058;9.028;2023-11-21T10:29:39;9.00;99.90
24103;DHT22;12278;53.058;9.028;2023-11-21T10:33:42;9.00;99.90
24103;DHT22;12278;53.058;9.028;2023-11-21T10:37:43;8.90;99.90
24103;DHT22;12278;53.058;9.028;2023-11-21T10:41:47;9.00;99.90
24103;DHT22;12278;53.058;9.028;2023-11-21T10:45:48;9.10;99.90
24103;DHT22;12278;53.058;9.028;2023-11-21T10:49:49;9.10;99.90
24103;DHT22;12278;53.058;9.028;2023-11-21T10:53:51;9.10;99.90
24103;DHT22;12278;53.058;9.028;2023-11-21T10:57:53;9.10;99.90
24103;DHT22;12278;53.058;9.028;2023-11-21T11:01:57;9.20;99.90
24103;DHT22;12278;53.058;9.028;2023-11-21T11:05:59;9.00;99.90
24103;DHT22;12278;53.058;9.028;2023-11-21T11:10:00;9.00;99.90
24103;DHT22;12278;53.058;9.028;2023-11-21T11:14:01;8.80;99.90
24103;DHT22;12278;53.058;9.028;2023-11-21T11:18:03;8.80;99.90
24103;DHT22;12278;53.058;9.028;2023-11-21T11:26:41;8.90;99.90
24103;DHT22;12278;53.058;9.028;2023-11-21T11:31:05;9.10;99.90
24103;DHT22;12278;53.058;9.028;2023-11-21T11:35:24;9.20;99.90
24103;DHT22;12278;53.058;9.028;2023-11-21T11:39:41;9.00;99.90
24103;DHT22;12278;53.058;9.028;2023-11-21T11:43:45;9.00;99.90
24103;DHT22;12278;53.058;9.028;2023-11-21T11:47:47;9.10;99.90
24103;DHT22;12278;53.058;9.028;2023-11-21T11:51:48;9.00;99.90
24103;DHT22;12278;53.058;9.028;2023-11-21T11:56:18;9.00;99.90
24103;DHT22;12278;53.058;9.028;2023-11-21T12:04:25;9.10;99.90
24103;DHT22;12278;53.058;9.028;2023-11-21T12:08:35;9.30;99.90
24103;DHT22;12278;53.058;9.028;2023-11-21T12:12:36;9.40;99.90
24103;DHT22;12278;53.058;9.028;2023-11-21T12:16:37;9.40;99.90
24103;DHT22;12278;53.058;9.028;2023-11-21T12:20:37;9.40;99.90
24103;DHT22;12278;53.058;9.028;2023-11-21T12:24:43;9.20;99.90
24103;DHT22;12278;53.058;9.028;2023-11-21T12:28:43;9.00;99.90
24103;DHT22;12278;53.058;9.028;2023-11-21T12:32:45;8.70;99.90
24103;DHT22;12278;53.058;9.028;2023-11-21T12:36:48;8.50;99.90
24103;DHT22;12278;53.058;9.028;2023-11-21T12:40:50;8.50;99.90
24103;DHT22;12278;53.058;9.028;2023-11-21T12:45:18;8.40;99.90
24103;DHT22;12278;53.058;9.028;2023-11-21T12:49:18;8.60;99.90
24103;DHT22;12278;53.058;9.028;2023-11-21T12:53:19;8.70;99.90
24103;DHT22;12278;53.058;9.028;2023-11-21T12:57:20;9.00;99.90
24103;DHT22;12278;53.058;9.028;2023-11-21T13:01:20;9.20;99.90
24103;DHT22;12278;53.058;9.028;2023-11-21T13:05:27;9.20;99.90
24103;DHT22;12278;53.058;9.028;2023-11-21T13:09:28;9.30;99.90
24103;DHT22;12278;53.058;9.028;2023-11-21T13:13:29;9.40;99.90
24103;DHT22;12278;53.058;9.028;2023-11-21T13:17:30;9.20;99.90
24103;DHT22;12278;53.058;9.028;2023-11-21T13:21:30;8.90;99.90
24103;DHT22;12278;53.058;9.028;2023-11-21T13:25:31;8.70;99.90
24103;DHT22;12278;53.058;9.028;2023-11-21T13:29:32;8.50;99.90
24103;DHT22;12278;53.058;9.028;2023-11-21T13:33:32;8.20;99.90
24103;DHT22;12278;53.058;9.028;2023-11-21T13:37:34;8.20;99.90
24103;DHT22;12278;53.058;9.028;2023-11-21T13:41:35;8.10;99.90
24103;DHT22;12278;53.058;9.028;2023-11-21T13:45:39;8.10;99.90
24103;DHT22;12278;53.058;9.028;2023-11-21T13:49:40;8.10;99.90
24103;DHT22;12278;53.058;9.028;2023-11-21T13:53:48;8.00;99.90
24103;DHT22;12278;53.058;9.028;2023-11-21T13:57:51;8.00;99.90
24103;DHT22;12278;53.058;9.028;2023-11-21T14:01:53;7.90;99.90
24103;DHT22;12278;53.058;9.028;2023-11-21T14:05:53;8.00;99.90
24103;DHT22;12278;53.058;9.028;2023-11-21T14:09:56;8.00;99.90
24103;DHT22;12278;53.058;9.028;2023-11-21T14:13:58;8.00;99.90
24103;DHT22;12278;53.058;9.028;2023-11-21T14:18:00;7.90;99.90
24103;DHT22;12278;53.058;9.028;2023-11-21T14:22:03;7.90;99.90
24103;DHT22;12278;53.058;9.028;2023-11-21T14:26:03;7.80;99.90
24103;DHT22;12278;53.058;9.028;2023-11-21T14:30:05;7.80;99.90
24103;DHT22;12278;53.058;9.028;2023-11-21T14:34:05;7.70;99.90
24103;DHT22;12278;53.058;9.028;2023-11-21T14:38:07;7.60;99.90
24103;DHT22;12278;53.058;9.028;2023-11-21T14:42:08;7.60;99.90
24103;DHT22;12278;53.058;9.028;2023-11-21T14:46:08;7.60;99.90
24103;DHT22;12278;53.058;9.028;2023-11-21T14:50:10;7.50;99.90
24103;DHT22;12278;53.058;9.028;2023-11-21T14:54:30;7.40;99.90
24103;DHT22;12278;53.058;9.028;2023-11-21T14:58:40;7.40;99.90
24103;DHT22;12278;53.058;9.028;2023-11-21T15:02:41;7.40;99.90
24103;DHT22;12278;53.058;9.028;2023-11-21T15:06:50;7.30;99.90
24103;DHT22;12278;53.058;9.028;2023-11-21T15:10:53;7.30;99.90
24103;DHT22;12278;53.058;9.028;2023-11-21T15:14:55;7.30;99.90
24103;DHT22;12278;53.058;9.028;2023-11-21T15:18:57;7.20;99.90
24103;DHT22;12278;53.058;9.028;2023-11-21T15:22:58;7.20;99.90
24103;DHT22;12278;53.058;9.028;2023-11-21T15:26:59;7.10;99.90
24103;DHT22;12278;53.058;9.028;2023-11-21T15:31:00;7.10;99.90
24103;DHT22;12278;53.058;9.028;2023-11-21T15:35:01;7.10;99.90
24103;DHT22;12278;53.058;9.028;2023-11-21T15:39:02;7.00;99.90
24103;DHT22;12278;53.058;9.028;2023-11-21T15:43:02;7.00;99.90
24103;DHT22;12278;53.058;9.028;2023-11-21T15:47:04;7.00;99.90
24103;DHT22;12278;53.058;9.028;2023-11-21T15:51:04;7.00;99.90
24103;DHT22;12278;53.058;9.028;2023-11-21T15:55:05;6.90;99.90
24103;DHT22;12278;53.058;9.028;2023-11-21T15:59:07;6.90;99.90
24103;DHT22;12278;53.058;9.028;2023-11-21T16:03:07;6.90;99.90
24103;DHT22;12278;53.058;9.028;2023-11-21T16:07:09;6.80;99.90
24103;DHT22;12278;53.058;9.028;2023-11-21T16:11:11;6.90;99.90
24103;DHT22;12278;53.058;9.028;2023-11-21T16:15:11;6.80;99.90
24103;DHT22;12278;53.058;9.028;2023-11-21T16:19:12;6.80;99.90
24103;DHT22;12278;53.058;9.028;2023-11-21T16:23:12;6.70;99.90
24103;DHT22;12278;53.058;9.028;2023-11-21T16:27:16;6.80;99.90
24103;DHT22;12278;53.058;9.028;2023-11-21T16:31:23;6.80;99.90
24103;DHT22;12278;53.058;9.028;2023-11-21T16:35:24;6.80;99.90
24103;DHT22;12278;53.058;9.028;2023-11-21T16:39:25;6.70;99.90
24103;DHT22;12278;53.058;9.028;2023-11-21T16:43:25;6.70;99.90
24103;DHT22;12278;53.058;9.028;2023-11-21T16:47:26;6.60;99.90
24103;DHT22;12278;53.058;9.028;2023-11-21T16:51:26;6.50;99.90
24103;DHT22;12278;53.058;9.028;2023-11-21T16:55:27;6.70;99.90
24103;DHT22;12278;53.058;9.028;2023-11-21T16:59:27;6.70;99.90
24103;DHT22;12278;53.058;9.028;2023-11-21T17:03:28;6.60;99.90
24103;DHT22;12278;53.058;9.028;2023-11-21T17:07:29;6.60;99.90
24103;DHT22;12278;53.058;9.028;2023-11-21T17:11:29;6.60;99.90
24103;DHT22;12278;53.058;9.028;2023-11-21T17:15:30;6.60;99.90
24103;DHT22;12278;53.058;9.028;2023-11-21T17:19:31;6.60;99.90
24103;DHT22;12278;53.058;9.028;2023-11-21T17:23:33;6.80;99.90
24103;DHT22;12278;53.058;9.028;2023-11-21T17:27:33;6.70;99.90
24103;DHT22;12278;53.058;9.028;2023-11-21T17:31:34;6.70;99.90
24103;DHT22;12278;53.058;9.028;2023-11-21T17:35:35;6.70;99.90
24103;DHT22;12278;53.058;9.028;2023-11-21T17:39:35;6.60;99.90
24103;DHT22;12278;53.058;9.028;2023-11-21T17:43:36;6.60;99.90
24103;DHT22;12278;53.058;9.028;2023-11-21T17:47:40;6.60;99.90
24103;DHT22;12278;53.058;9.028;2023-11-21T17:51:41;6.60;99.90
24103;DHT22;12278;53.058;9.028;2023-11-21T17:55:42;6.60;99.90
24103;DHT22;12278;53.058;9.028;2023-11-21T17:59:43;6.50;99.90
24103;DHT22;12278;53.058;9.028;2023-11-21T18:03:51;6.60;99.90
24103;DHT22;12278;53.058;9.028;2023-11-21T18:07:51;6.60;99.90
24103;DHT22;12278;53.058;9.028;2023-11-21T18:11:52;6.50;99.90
24103;DHT22;12278;53.058;9.028;2023-11-21T18:15:53;6.60;99.90
24103;DHT22;12278;53.058;9.028;2023-11-21T18:19:54;6.50;99.90
24103;DHT22;12278;53.058;9.028;2023-11-21T18:23:55;6.60;99.90
24103;DHT22;12278;53.058;9.028;2023-11-21T18:27:55;6.40;99.90
24103;DHT22;12278;53.058;9.028;2023-11-21T18:31:56;6.50;99.90
24103;DHT22;12278;53.058;9.028;2023-11-21T18:35:57;6.40;99.90
24103;DHT22;12278;53.058;9.028;2023-11-21T18:39:57;6.50;99.90
24103;DHT22;12278;53.058;9.028;2023-11-21T18:43:58;6.60;99.90
24103;DHT22;12278;53.058;9.028;2023-11-21T18:47:59;6.60;99.90
24103;DHT22;12278;53.058;9.028;2023-11-21T18:51:59;6.50;99.90
24103;DHT22;12278;53.058;9.028;2023-11-21T18:56:01;6.50;99.90
24103;DHT22;12278;53.058;9.028;2023-11-21T19:00:03;6.40;99.90
24103;DHT22;12278;53.058;9.028;2023-11-21T19:04:04;6.40;99.90
24103;DHT22;12278;53.058;9.028;2023-11-21T19:08:05;6.30;99.90
24103;DHT22;12278;53.058;9.028;2023-11-21T19:12:06;6.30;99.90
24103;DHT22;12278;53.058;9.028;2023-11-21T19:16:07;6.20;99.90
24103;DHT22;12278;53.058;9.028;2023-11-21T19:20:08;6.20;99.90
24103;DHT22;12278;53.058;9.028;2023-11-21T19:24:09;6.20;99.90
24103;DHT22;12278;53.058;9.028;2023-11-21T19:28:09;6.00;99.90
24103;DHT22;12278;53.058;9.028;2023-11-21T19:32:10;5.90;99.90
24103;DHT22;12278;53.058;9.028;2023-11-21T19:36:10;5.70;99.90
24103;DHT22;12278;53.058;9.028;2023-11-21T19:40:12;5.60;99.90
24103;DHT22;12278;53.058;9.028;2023-11-21T19:44:12;5.50;99.90
24103;DHT22;12278;53.058;9.028;2023-11-21T19:48:13;5.30;99.90
24103;DHT22;12278;53.058;9.028;2023-11-21T19:52:14;5.30;99.90
24103;DHT22;12278;53.058;9.028;2023-11-21T19:56:15;5.20;99.90
24103;DHT22;12278;53.058;9.028;2023-11-21T20:00:16;5.10;99.90
24103;DHT22;12278;53.058;9.028;2023-11-21T20:04:17;5.00;99.90
24103;DHT22;12278;53.058;9.028;2023-11-21T20:08:17;5.00;99.90
24103;DHT22;12278;53.058;9.028;2023-11-21T20:12:18;4.90;99.90
24103;DHT22;12278;53.058;9.028;2023-11-21T20:16:19;4.80;99.90
24103;DHT22;12278;53.058;9.028;2023-11-21T20:20:20;4.70;99.90
24103;DHT22;12278;53.058;9.028;2023-11-21T20:24:20;4.70;99.90
24103;DHT22;12278;53.058;9.028;2023-11-21T20:28:21;4.60;99.90
24103;DHT22;12278;53.058;9.028;2023-11-21T20:32:21;4.50;99.90
24103;DHT22;12278;53.058;9.028;2023-11-21T20:36:24;4.50;99.90
24103;DHT22;12278;53.058;9.028;2023-11-21T20:40:25;4.50;99.90
24103;DHT22;12278;53.058;9.028;2023-11-21T20:44:25;4.40;99.90
24103;DHT22;12278;53.058;9.028;2023-11-21T20:48:26;4.30;99.90
24103;DHT22;12278;53.058;9.028;2023-11-21T20:52:29;4.20;99.90
24103;DHT22;12278;53.058;9.028;2023-11-21T20:56:29;4.10;99.90
24103;DHT22;12278;53.058;9.028;2023-11-21T21:00:30;4.00;99.90
24103;DHT22;12278;53.058;9.028;2023-11-21T21:04:30;3.90;99.90
24103;DHT22;12278;53.058;9.028;2023-11-21T21:08:31;3.80;99.90
24103;DHT22;12278;53.058;9.028;2023-11-21T21:12:32;3.80;99.90
24103;DHT22;12278;53.058;9.028;2023-11-21T21:16:32;3.70;99.90
24103;DHT22;12278;53.058;9.028;2023-11-21T21:20:34;3.70;99.90
24103;DHT22;12278;53.058;9.028;2023-11-21T21:24:36;3.60;99.90
24103;DHT22;12278;53.058;9.028;2023-11-21T21:28:36;3.70;99.90
24103;DHT22;12278;53.058;9.028;2023-11-21T21:32:37;3.60;99.90
24103;DHT22;12278;53.058;9.028;2023-11-21T21:36:37;3.60;99.90
24103;DHT22;12278;53.058;9.028;2023-11-21T21:40:39;3.70;99.90
24103;DHT22;12278;53.058;9.028;2023-11-21T21:44:40;3.70;99.90
24103;DHT22;12278;53.058;9.028;2023-11-21T21:48:40;3.70;99.90
24103;DHT22;12278;53.058;9.028;2023-11-21T21:52:41;3.70;99.90
24103;DHT22;12278;53.058;9.028;2023-11-21T21:56:42;3.70;99.90
24103;DHT22;12278;53.058;9.028;2023-11-21T22:00:43;3.70;99.90
24103;DHT22;12278;53.058;9.028;2023-11-21T22:04:43;3.70;99.90
24103;DHT22;12278;53.058;9.028;2023-11-21T22:08:44;3.80;99.90
24103;DHT22;12278;53.058;9.028;2023-11-21T22:12:44;3.80;99.90
24103;DHT22;12278;53.058;9.028;2023-11-21T22:16:45;3.90;99.90
24103;DHT22;12278;53.058;9.028;2023-11-21T22:20:46;3.90;99.90
24103;DHT22;12278;53.058;9.028;2023-11-21T22:24:46;4.00;99.90
24103;DHT22;12278;53.058;9.028;2023-11-21T22:28:47;4.00;99.90
24103;DHT22;12278;53.058;9.028;2023-11-21T22:32:47;4.10;99.90
24103;DHT22;12278;53.058;9.028;2023-11-21T22:36:48;4.10;99.90
24103;DHT22;12278;53.058;9.028;2023-11-21T22:40:49;4.10;99.90
24103;DHT22;12278;53.058;9.028;2023-11-21T22:44:49;4.10;99.90
24103;DHT22;12278;53.058;9.028;2023-11-21T22:48:50;4.20;99.90
24103;DHT22;12278;53.058;9.028;2023-11-21T22:52:50;4.10;99.90
24103;DHT22;12278;53.058;9.028;2023-11-21T22:56:53;4.10;99.90
24103;DHT22;12278;53.058;9.028;2023-11-21T23:00:54;4.10;99.90
24103;DHT22;12278;53.058;9.028;2023-11-21T23:04:57;4.10;99.90
24103;DHT22;12278;53.058;9.028;2023-11-21T23:08:58;4.10;99.90
24103;DHT22;12278;53.058;9.028;2023-11-21T23:12:58;4.10;99.90
24103;DHT22;12278;53.058;9.028;2023-11-21T23:16:59;4.10;99.90
24103;DHT22;12278;53.058;9.028;2023-11-21T23:21:00;4.00;99.90
24103;DHT22;12278;53.058;9.028;2023-11-21T23:25:01;4.00;99.90
24103;DHT22;12278;53.058;9.028;2023-11-21T23:29:01;3.90;99.90
24103;DHT22;12278;53.058;9.028;2023-11-21T23:33:03;3.90;99.90
24103;DHT22;12278;53.058;9.028;2023-11-21T23:37:04;3.90;99.90
24103;DHT22;12278;53.058;9.028;2023-11-21T23:41:04;3.90;99.90
24103;DHT22;12278;53.058;9.028;2023-11-21T23:45:05;4.00;99.90
24103;DHT22;12278;53.058;9.028;2023-11-21T23:49:06;4.00;99.90
24103;DHT22;12278;53.058;9.028;2023-11-21T23:53:07;4.00;99.90
24103;DHT22;12278;53.058;9.028;2023-11-21T23:57:08;4.10;99.90
